Metar z połowy godziny Komunikat METAR ze strony awiacja.imgw.pl Metar G30 EPLY METAR EPLY 221430Z 26010KT 9999 BKN050 15/06 Q1017 RMK 151 053 6/6=